Forest Hills, Georgia
Current Conditions -  °F | °C
As of 10:53 AM on Sunday 25 Jan 2015 (Local Time) from KDNL Reporting Station
Clear Clear  
Wind Chill: 51°   Ceiling: Unl
Heat Index: 51°   Visibility: 10mi
Dew Point: 31°   Wind: 5mph
Humidity: 46%   Direction: 260°W
Pressure: 29.98"   Gusts: NA
Location:  33.4713°N, 82.0854°W
Report Text: KDNL 251553Z AUTO 26004KT 10SM CLR 11/M01 A2998 RMK AO2 SLP151 T01061006
Loading
Personal Weather Stations






























Interactive Weather Map New forecast layout! Learn more

10-Day Weather Forecast

Advertisements
Track Severe Weather on mobile